createdAt,value
2023-07-19T00:02:05.424Z,51.02
2023-07-19T00:04:32.917Z,50.32
2023-07-19T00:07:00.292Z,50.90
2023-07-19T00:09:27.704Z,50.84
2023-07-19T00:11:55.046Z,49.92
2023-07-19T00:14:22.546Z,49.99
2023-07-19T00:16:49.805Z,50.42
2023-07-19T00:19:20.649Z,49.84
2023-07-19T00:21:49.984Z,50.52
2023-07-19T00:24:17.839Z,50.62
2023-07-19T00:26:46.541Z,49.77
2023-07-19T00:29:13.997Z,50.96
2023-07-19T00:31:41.314Z,50.63
2023-07-19T00:34:08.785Z,49.97
2023-07-19T00:36:37.855Z,49.85
2023-07-19T00:39:05.460Z,49.88
2023-07-19T00:41:32.735Z,50.14
2023-07-19T00:44:00.171Z,49.91
2023-07-19T00:46:28.937Z,49.98
2023-07-19T00:48:57.450Z,50.13
2023-07-19T00:51:25.070Z,50.38
2023-07-19T00:53:53.007Z,50.11
2023-07-19T00:56:21.788Z,50.00
2023-07-19T00:58:51.431Z,49.75
2023-07-19T01:01:21.820Z,50.06
2023-07-19T01:03:49.522Z,49.88
2023-07-19T01:06:19.029Z,50.35
2023-07-19T01:08:48.015Z,50.40
2023-07-19T01:11:15.367Z,50.39
2023-07-19T01:13:56.145Z,50.55
2023-07-19T01:16:25.464Z,50.24
2023-07-19T01:18:52.727Z,49.62
2023-07-19T01:21:23.351Z,50.28
2023-07-19T01:23:51.692Z,49.96
2023-07-19T01:26:19.162Z,50.81
2023-07-19T01:28:46.597Z,51.09
2023-07-19T01:31:16.000Z,51.39
2023-07-19T01:33:43.354Z,51.24
2023-07-19T01:36:10.605Z,50.90
2023-07-19T01:38:39.016Z,50.65
2023-07-19T01:41:06.397Z,50.57
2023-07-19T01:43:34.079Z,51.06
2023-07-19T01:46:01.491Z,50.89
2023-07-19T01:48:29.531Z,51.34
2023-07-19T01:50:56.867Z,51.71
2023-07-19T01:53:24.183Z,51.44
2023-07-19T01:55:51.464Z,51.66
2023-07-19T01:58:18.758Z,52.06
2023-07-19T02:00:46.163Z,51.03
2023-07-19T02:03:13.713Z,51.88
2023-07-19T02:05:42.268Z,52.36
2023-07-19T02:08:09.465Z,51.80
2023-07-19T02:10:36.992Z,51.93
2023-07-19T02:13:04.357Z,51.55
2023-07-19T02:15:31.687Z,52.12
2023-07-19T02:17:59.146Z,52.79
2023-07-19T02:20:26.459Z,53.10
2023-07-19T02:22:53.897Z,53.27
2023-07-19T02:25:22.257Z,52.44
2023-07-19T02:27:49.614Z,53.08
2023-07-19T02:30:17.018Z,53.63
2023-07-19T02:32:44.504Z,53.77
2023-07-19T02:35:11.812Z,53.17
2023-07-19T02:37:39.350Z,53.64
2023-07-19T02:40:07.552Z,53.80
2023-07-19T02:42:34.843Z,53.98
2023-07-19T02:45:02.473Z,53.69
2023-07-19T02:47:31.021Z,54.47
2023-07-19T02:49:58.526Z,55.32
2023-07-19T02:52:25.784Z,55.99
2023-07-19T02:54:53.528Z,56.62
2023-07-19T02:57:20.839Z,57.36
2023-07-19T02:59:48.212Z,58.03
2023-07-19T03:02:15.575Z,58.30
2023-07-19T03:04:43.027Z,58.29
2023-07-19T03:07:10.564Z,57.97
2023-07-19T03:09:38.116Z,57.97
2023-07-19T03:12:05.835Z,58.47
2023-07-19T03:14:33.130Z,59.88
2023-07-19T03:17:00.969Z,59.32
2023-07-19T03:19:28.359Z,59.64
2023-07-19T03:21:55.693Z,59.56
2023-07-19T03:24:23.079Z,59.93
2023-07-19T03:26:50.641Z,60.50
2023-07-19T03:29:17.954Z,61.02
2023-07-19T03:31:46.789Z,59.43
2023-07-19T03:34:15.176Z,58.87
2023-07-19T03:36:42.612Z,60.49
2023-07-19T03:39:09.862Z,60.31
2023-07-19T03:41:37.809Z,61.86
2023-07-19T03:44:05.402Z,62.30
2023-07-19T03:46:32.813Z,61.38
2023-07-19T03:49:00.785Z,62.71
2023-07-19T03:51:28.432Z,63.34
2023-07-19T03:53:56.780Z,63.40
2023-07-19T03:56:24.791Z,63.67
2023-07-19T03:58:53.280Z,63.60
2023-07-19T04:01:21.153Z,64.23
2023-07-19T04:03:50.507Z,63.51
2023-07-19T04:06:18.763Z,63.67
2023-07-19T04:08:46.131Z,64.36
2023-07-19T04:11:13.661Z,64.49
2023-07-19T04:13:41.014Z,64.64
2023-07-19T04:16:08.793Z,64.76
2023-07-19T04:18:36.092Z,64.07
2023-07-19T04:21:03.621Z,65.24
2023-07-19T04:23:31.022Z,65.13
2023-07-19T04:26:00.613Z,64.48
2023-07-19T04:28:30.039Z,64.28
2023-07-19T04:30:57.840Z,65.40
2023-07-19T04:33:25.454Z,65.54
2023-07-19T04:35:52.899Z,64.77
2023-07-19T04:38:20.987Z,64.06
2023-07-19T04:40:48.377Z,64.51
2023-07-19T04:43:15.895Z,64.35
2023-07-19T04:45:46.058Z,63.92
2023-07-19T04:48:15.214Z,62.48
2023-07-19T04:50:42.540Z,62.49
2023-07-19T04:53:10.962Z,62.43
2023-07-19T04:55:38.464Z,62.47
2023-07-19T04:58:05.900Z,62.40
2023-07-19T05:00:33.173Z,63.78
2023-07-19T05:03:00.737Z,63.81
2023-07-19T05:05:28.164Z,64.11
2023-07-19T05:07:55.446Z,63.48
2023-07-19T05:10:23.131Z,62.71
2023-07-19T05:12:50.844Z,62.46
2023-07-19T05:15:18.270Z,60.93
2023-07-19T05:17:45.640Z,60.86
2023-07-19T05:20:13.553Z,60.60
2023-07-19T05:22:41.022Z,60.34
2023-07-19T05:25:11.171Z,61.26
2023-07-19T05:27:38.904Z,61.54
2023-07-19T05:30:06.708Z,61.94
2023-07-19T05:32:34.090Z,61.20
2023-07-19T05:35:01.543Z,62.44
2023-07-19T05:37:28.954Z,62.96
2023-07-19T05:39:56.414Z,62.48
2023-07-19T05:42:23.789Z,62.36
2023-07-19T05:44:51.132Z,61.58
2023-07-19T05:47:19.039Z,60.78
2023-07-19T05:49:46.430Z,60.51
2023-07-19T05:52:13.675Z,60.21
2023-07-19T05:54:40.909Z,59.36
2023-07-19T05:57:08.236Z,59.17
2023-07-19T05:59:35.531Z,58.91
2023-07-19T06:02:03.059Z,59.73
2023-07-19T06:04:30.581Z,59.88
2023-07-19T06:06:58.052Z,60.22
2023-07-19T06:09:25.557Z,61.68
2023-07-19T06:11:57.894Z,62.12
2023-07-19T06:14:25.326Z,62.10
2023-07-19T06:16:52.775Z,62.75
2023-07-19T06:19:20.690Z,65.88
2023-07-19T06:21:48.082Z,66.21
2023-07-19T06:24:15.321Z,67.03
2023-07-19T06:26:42.602Z,68.00
2023-07-19T06:29:09.902Z,67.56
2023-07-19T06:31:37.509Z,66.67
2023-07-19T06:34:04.853Z,67.01
2023-07-19T06:36:32.153Z,66.40
2023-07-19T06:38:59.436Z,66.16
2023-07-19T06:41:26.872Z,65.45
2023-07-19T06:43:54.768Z,66.53
2023-07-19T06:46:22.276Z,65.08
2023-07-19T06:48:49.613Z,66.24
2023-07-19T06:51:17.326Z,67.00
2023-07-19T06:53:44.621Z,66.96
2023-07-19T06:56:12.059Z,68.13
2023-07-19T06:58:39.318Z,68.13
2023-07-19T07:01:06.739Z,67.52
2023-07-19T07:03:36.120Z,67.20
2023-07-19T07:06:04.597Z,68.65
2023-07-19T07:08:32.023Z,66.71
2023-07-19T07:11:02.819Z,63.78
2023-07-19T07:13:30.252Z,63.37
2023-07-19T07:15:59.567Z,64.51
2023-07-19T07:18:27.824Z,64.80
2023-07-19T07:20:55.256Z,64.06
2023-07-19T07:23:22.643Z,63.37
2023-07-19T07:25:54.683Z,63.32
2023-07-19T07:28:22.127Z,62.87
2023-07-19T07:30:49.351Z,64.25
2023-07-19T07:33:17.577Z,63.04
2023-07-19T07:35:44.898Z,63.56
2023-07-19T07:38:12.637Z,62.80
2023-07-19T07:40:39.873Z,64.04
2023-07-19T07:43:07.687Z,63.74
2023-07-19T07:45:36.353Z,61.35
2023-07-19T07:48:04.315Z,60.86
2023-07-19T07:50:32.102Z,59.36
2023-07-19T07:53:11.835Z,60.04
2023-07-19T07:55:40.401Z,61.10
2023-07-19T07:58:07.986Z,59.98
2023-07-19T08:00:35.382Z,59.31
2023-07-19T08:03:02.951Z,58.93
2023-07-19T08:05:33.151Z,57.90
2023-07-19T08:08:00.467Z,57.79
2023-07-19T08:10:27.747Z,56.78
2023-07-19T08:12:55.033Z,55.79
2023-07-19T08:15:24.621Z,55.91
2023-07-19T08:17:53.744Z,55.16
2023-07-19T08:20:21.107Z,55.49
2023-07-19T08:22:48.472Z,56.98
2023-07-19T08:25:27.264Z,56.65
2023-07-19T08:27:56.119Z,55.68
2023-07-19T08:30:24.660Z,55.53
2023-07-19T08:32:53.029Z,55.42
2023-07-19T08:35:20.777Z,54.71
2023-07-19T08:37:48.204Z,55.61
2023-07-19T08:40:16.984Z,55.52
2023-07-19T08:42:44.775Z,54.83
2023-07-19T08:45:13.386Z,55.04
2023-07-19T08:47:41.894Z,54.19
2023-07-19T08:50:11.955Z,54.65
2023-07-19T08:52:39.369Z,53.84
2023-07-19T08:55:07.964Z,53.02
2023-07-19T08:57:44.322Z,53.71
2023-07-19T09:00:12.176Z,52.14
2023-07-19T09:02:39.546Z,52.20
2023-07-19T09:05:06.980Z,52.17
2023-07-19T09:07:35.004Z,50.98
2023-07-19T09:10:02.417Z,50.77
2023-07-19T09:12:44.072Z,51.57
2023-07-19T09:15:13.635Z,50.79
2023-07-19T09:17:46.264Z,50.42
2023-07-19T09:20:14.983Z,48.91
2023-07-19T09:22:43.123Z,48.52
2023-07-19T09:25:12.153Z,47.84
2023-07-19T09:27:42.637Z,46.96
2023-07-19T09:30:11.815Z,47.77
2023-07-19T09:32:39.523Z,47.75
2023-07-19T09:35:08.403Z,47.92
2023-07-19T09:37:35.844Z,48.16
2023-07-19T09:40:05.912Z,48.33
2023-07-19T09:42:37.381Z,49.09
2023-07-19T09:45:07.807Z,49.98
2023-07-19T09:47:38.508Z,49.52
2023-07-19T09:50:08.126Z,48.31
2023-07-19T09:52:39.428Z,48.21
2023-07-19T09:55:09.144Z,49.42
2023-07-19T09:57:39.378Z,49.20
2023-07-19T10:00:08.907Z,48.50
2023-07-19T10:02:36.092Z,47.59
2023-07-19T10:05:09.265Z,47.39
2023-07-19T10:07:51.009Z,45.84
2023-07-19T10:10:21.638Z,47.39
2023-07-19T10:12:50.228Z,47.06
2023-07-19T10:15:22.221Z,46.45
2023-07-19T10:18:00.036Z,46.16
2023-07-19T10:20:30.871Z,46.73
2023-07-19T10:23:06.445Z,45.22
2023-07-19T10:25:36.164Z,47.37
2023-07-19T10:28:10.360Z,48.63
2023-07-19T10:30:46.453Z,47.69
2023-07-19T10:33:16.803Z,48.54
2023-07-19T10:35:44.811Z,48.79
2023-07-19T10:38:26.084Z,49.51
2023-07-19T10:41:04.202Z,47.91
2023-07-19T10:46:05.966Z,47.09
2023-07-19T10:48:36.168Z,46.16
2023-07-19T10:51:10.558Z,45.71
2023-07-19T10:53:43.194Z,45.52
2023-07-19T10:56:10.515Z,45.72
2023-07-19T10:58:37.866Z,46.38
2023-07-19T11:01:05.613Z,45.68
2023-07-19T11:03:34.191Z,44.68
2023-07-19T11:06:02.166Z,43.66
2023-07-19T11:08:30.589Z,42.55
2023-07-19T11:10:58.654Z,43.51
2023-07-19T11:13:27.632Z,43.81
2023-07-19T11:15:56.507Z,43.89
2023-07-19T11:18:44.018Z,43.72
2023-07-19T11:21:11.989Z,42.63
2023-07-19T11:23:42.881Z,41.98
2023-07-19T11:26:16.875Z,42.57
2023-07-19T11:28:48.588Z,43.19
2023-07-19T11:31:35.184Z,43.20
2023-07-19T11:34:07.143Z,42.84
2023-07-19T11:36:35.566Z,42.96
2023-07-19T11:39:03.601Z,43.50
2023-07-19T11:41:32.463Z,43.49
2023-07-19T11:43:59.969Z,43.83
2023-07-19T11:46:27.290Z,44.61
2023-07-19T11:48:54.730Z,44.90
2023-07-19T11:51:22.711Z,44.30
2023-07-19T11:53:50.335Z,43.77
2023-07-19T11:56:18.473Z,43.50
2023-07-19T11:58:46.928Z,42.40
2023-07-19T12:01:15.108Z,42.88
2023-07-19T12:03:43.834Z,41.97
2023-07-19T12:06:12.255Z,43.09
2023-07-19T12:08:39.828Z,42.84
2023-07-19T12:11:07.456Z,42.47
2023-07-19T12:13:35.930Z,41.54
2023-07-19T12:16:03.755Z,41.07
2023-07-19T12:18:31.341Z,41.32
2023-07-19T12:20:58.770Z,41.77
2023-07-19T12:25:56.402Z,42.49
2023-07-19T12:28:24.120Z,42.24
2023-07-19T12:30:51.812Z,42.76
2023-07-19T12:33:19.450Z,42.63
2023-07-19T12:35:48.105Z,42.08
2023-07-19T12:38:16.249Z,41.43
2023-07-19T12:40:44.519Z,41.86
2023-07-19T12:43:11.980Z,41.57
2023-07-19T12:45:39.344Z,40.76
2023-07-19T12:48:06.776Z,40.06
2023-07-19T12:50:34.184Z,39.72
2023-07-19T12:53:01.535Z,40.81
2023-07-19T12:55:28.926Z,40.35
2023-07-19T12:57:57.061Z,40.05
2023-07-19T13:00:24.551Z,39.85
2023-07-19T13:02:52.429Z,40.48
2023-07-19T13:05:20.055Z,40.80
2023-07-19T13:07:47.424Z,40.53
2023-07-19T13:10:15.601Z,41.30
2023-07-19T13:12:43.070Z,41.48
2023-07-19T13:15:11.037Z,40.76
2023-07-19T13:17:39.453Z,41.71
2023-07-19T13:20:10.636Z,41.38
2023-07-19T13:22:38.434Z,41.76
2023-07-19T13:25:07.031Z,41.11
2023-07-19T13:27:36.126Z,41.21
2023-07-19T13:30:07.738Z,40.52
2023-07-19T13:32:36.729Z,39.83
2023-07-19T13:35:04.548Z,39.68
2023-07-19T13:40:02.174Z,39.93
2023-07-19T13:42:33.698Z,40.20
2023-07-19T13:45:07.100Z,40.81
2023-07-19T13:47:34.642Z,40.34
2023-07-19T13:50:02.181Z,38.51
2023-07-19T13:52:29.512Z,37.59
2023-07-19T13:54:56.903Z,37.34
2023-07-19T13:57:24.726Z,37.06
2023-07-19T13:59:52.660Z,36.89
2023-07-19T14:02:27.134Z,37.00
2023-07-19T14:04:56.160Z,39.04
2023-07-19T14:07:24.129Z,39.34
2023-07-19T14:09:52.388Z,39.18
2023-07-19T14:12:20.080Z,39.15
2023-07-19T14:14:48.804Z,39.01
2023-07-19T14:17:16.196Z,38.21
2023-07-19T14:19:43.568Z,38.22
2023-07-19T14:22:10.843Z,38.88
2023-07-19T14:24:41.240Z,38.69
2023-07-19T14:27:10.721Z,39.40
2023-07-19T14:29:38.118Z,39.94
2023-07-19T14:32:06.142Z,39.53
2023-07-19T14:34:38.803Z,39.90
2023-07-19T14:37:07.224Z,40.24
2023-07-19T14:39:34.525Z,39.89
2023-07-19T14:42:02.097Z,39.50
2023-07-19T14:44:29.544Z,39.64
2023-07-19T14:46:58.476Z,39.83
2023-07-19T14:49:27.226Z,39.26
2023-07-19T14:51:54.662Z,39.04
2023-07-19T14:54:21.962Z,39.25
2023-07-19T14:56:50.237Z,39.52
2023-07-19T14:59:17.647Z,40.06
2023-07-19T15:01:44.938Z,39.84
2023-07-19T15:04:13.609Z,39.15
2023-07-19T15:06:41.061Z,39.62
2023-07-19T15:09:08.463Z,40.29
2023-07-19T15:11:35.888Z,40.08
2023-07-19T15:14:03.664Z,40.84
2023-07-19T15:16:32.749Z,41.58
2023-07-19T15:19:00.351Z,41.20
2023-07-19T15:21:27.777Z,41.12
2023-07-19T15:23:55.099Z,41.71
2023-07-19T15:26:32.789Z,41.78
2023-07-19T15:29:02.097Z,41.81
2023-07-19T15:31:30.141Z,41.54
2023-07-19T15:33:57.570Z,41.68
2023-07-19T15:36:25.084Z,42.41
2023-07-19T15:38:55.624Z,42.67
2023-07-19T15:41:24.277Z,43.04
2023-07-19T15:43:52.067Z,43.16
2023-07-19T15:46:19.488Z,42.76
2023-07-19T15:48:47.633Z,42.81
2023-07-19T15:51:14.940Z,42.98
2023-07-19T15:53:42.488Z,43.00
2023-07-19T15:56:10.667Z,43.51
2023-07-19T15:58:38.498Z,43.61
2023-07-19T16:01:08.892Z,43.41
2023-07-19T16:03:36.745Z,43.07
2023-07-19T16:06:04.600Z,42.89
2023-07-19T16:08:32.360Z,42.73
2023-07-19T16:11:00.226Z,42.11
2023-07-19T16:13:27.564Z,41.87
2023-07-19T16:15:55.074Z,41.35
2023-07-19T16:18:22.579Z,41.49
2023-07-19T16:20:49.836Z,42.15
2023-07-19T16:23:17.336Z,40.96
2023-07-19T16:25:44.873Z,41.39
2023-07-19T16:28:12.306Z,41.91
2023-07-19T16:30:40.079Z,42.53
2023-07-19T16:33:07.394Z,42.85
2023-07-19T16:35:35.501Z,42.82
2023-07-19T16:38:02.850Z,43.09
2023-07-19T16:40:30.093Z,42.57
2023-07-19T16:42:57.745Z,42.89
2023-07-19T16:45:25.516Z,42.15
2023-07-19T16:47:59.562Z,42.27
2023-07-19T16:50:27.428Z,42.59
2023-07-19T16:53:02.674Z,42.45
2023-07-19T16:55:30.335Z,42.67
2023-07-19T16:58:00.032Z,42.30
2023-07-19T17:00:27.402Z,42.82
2023-07-19T17:02:54.782Z,43.40
2023-07-19T17:05:22.417Z,43.63
2023-07-19T17:07:49.858Z,44.27
2023-07-19T17:10:18.203Z,44.68
2023-07-19T17:12:45.588Z,44.61
2023-07-19T17:15:13.038Z,45.37
2023-07-19T17:17:40.505Z,45.65
2023-07-19T17:20:08.589Z,46.22
2023-07-19T17:22:35.933Z,45.64
2023-07-19T17:25:03.673Z,45.00
2023-07-19T17:27:31.039Z,45.21
2023-07-19T17:29:58.683Z,45.94
2023-07-19T17:32:26.171Z,46.65
2023-07-19T17:34:53.620Z,46.87
2023-07-19T17:37:20.958Z,47.07
2023-07-19T17:39:49.128Z,46.49
2023-07-19T17:42:16.796Z,47.02
2023-07-19T17:44:44.104Z,46.97
2023-07-19T17:47:12.138Z,46.46
2023-07-19T17:49:39.875Z,45.92
2023-07-19T17:52:08.586Z,46.25
2023-07-19T17:54:36.174Z,46.55
2023-07-19T17:57:03.905Z,46.47
2023-07-19T17:59:31.241Z,47.72
2023-07-19T18:01:58.694Z,47.40
2023-07-19T18:04:26.081Z,47.87
2023-07-19T18:06:53.497Z,48.79
2023-07-19T18:09:20.860Z,49.12
2023-07-19T18:11:48.252Z,49.16
2023-07-19T18:14:15.627Z,49.16
2023-07-19T18:16:43.242Z,49.00
2023-07-19T18:19:10.558Z,49.53
2023-07-19T18:21:41.034Z,50.13
2023-07-19T18:24:10.358Z,50.36
2023-07-19T18:26:37.654Z,50.42
2023-07-19T18:29:05.025Z,51.81
2023-07-19T18:31:32.432Z,51.56
2023-07-19T18:33:59.742Z,52.05
2023-07-19T18:36:27.181Z,52.52
2023-07-19T18:38:55.862Z,52.66
2023-07-19T18:41:24.150Z,52.14
2023-07-19T18:43:51.681Z,52.05
2023-07-19T18:46:19.418Z,52.54
2023-07-19T18:48:47.036Z,52.50
2023-07-19T18:51:14.386Z,51.56
2023-07-19T18:53:48.295Z,52.41
2023-07-19T18:56:15.764Z,52.45
2023-07-19T18:58:43.147Z,51.88
2023-07-19T19:01:10.610Z,52.40
2023-07-19T19:03:37.979Z,51.81
2023-07-19T19:06:05.385Z,51.96
2023-07-19T19:08:35.512Z,52.00
2023-07-19T19:11:02.763Z,51.85
2023-07-19T19:13:30.068Z,51.58
2023-07-19T19:16:00.792Z,51.39
2023-07-19T19:18:28.882Z,50.90
2023-07-19T19:20:56.208Z,51.68
2023-07-19T19:23:23.931Z,52.13
2023-07-19T19:25:51.214Z,52.37
2023-07-19T19:28:18.836Z,51.68
2023-07-19T19:30:47.366Z,51.85
2023-07-19T19:33:14.950Z,51.01
2023-07-19T19:35:42.497Z,52.20
2023-07-19T19:38:09.885Z,52.20
2023-07-19T19:40:37.167Z,52.00
2023-07-19T19:43:04.392Z,51.76
2023-07-19T19:45:31.718Z,51.72
2023-07-19T19:47:59.049Z,51.74
2023-07-19T19:50:27.868Z,52.06
2023-07-19T19:53:08.677Z,51.78
2023-07-19T19:58:08.454Z,52.59
2023-07-19T20:00:36.094Z,52.37
2023-07-19T20:08:04.770Z,52.78
2023-07-19T20:10:32.091Z,52.65
2023-07-19T20:13:00.036Z,52.44
2023-07-19T20:15:27.580Z,52.58
2023-07-19T20:18:18.582Z,52.97
2023-07-19T20:20:42.172Z,53.47
2023-07-19T20:23:09.865Z,54.33
2023-07-19T20:25:53.845Z,54.69
2023-07-19T20:28:24.529Z,54.46
2023-07-19T20:30:52.759Z,54.52
2023-07-19T20:33:20.423Z,55.20
2023-07-19T20:43:18.583Z,54.87
2023-07-19T20:45:46.058Z,55.19
2023-07-19T20:48:13.404Z,54.72
2023-07-19T20:50:40.893Z,55.46
2023-07-19T20:53:08.283Z,55.73
2023-07-19T20:55:35.574Z,55.79
2023-07-19T20:58:02.895Z,55.89
2023-07-19T21:00:30.380Z,55.76
2023-07-19T21:02:57.811Z,56.37
2023-07-19T21:05:25.602Z,56.17
2023-07-19T21:07:52.875Z,57.14
2023-07-19T21:10:20.446Z,57.08
2023-07-19T21:12:47.854Z,57.96
2023-07-19T21:15:15.155Z,58.27
2023-07-19T21:17:42.591Z,58.50
2023-07-19T21:20:10.201Z,57.68
2023-07-19T21:22:38.993Z,58.11
2023-07-19T21:25:15.541Z,58.55
2023-07-19T21:27:43.719Z,58.33
2023-07-19T21:30:12.997Z,58.25
2023-07-19T21:32:43.822Z,57.99
2023-07-19T21:35:11.356Z,57.77
2023-07-19T21:37:38.870Z,58.88
2023-07-19T21:40:07.024Z,58.79
2023-07-19T21:42:34.643Z,58.37
2023-07-19T21:45:02.106Z,58.49
2023-07-19T21:47:29.452Z,58.06
2023-07-19T21:49:56.750Z,57.36
2023-07-19T21:52:24.047Z,58.99
2023-07-19T21:54:51.326Z,58.33
2023-07-19T21:57:18.817Z,58.84
2023-07-19T21:59:46.122Z,59.96
2023-07-19T22:02:14.112Z,60.22
2023-07-19T22:04:41.323Z,60.41
2023-07-19T22:07:08.991Z,61.05
2023-07-19T22:09:36.232Z,61.84
2023-07-19T22:12:04.149Z,61.69
2023-07-19T22:14:31.411Z,62.06
2023-07-19T22:16:58.716Z,61.63
2023-07-19T22:19:26.095Z,61.77
2023-07-19T22:21:53.492Z,60.62
2023-07-19T22:24:21.438Z,60.56
2023-07-19T22:26:48.736Z,60.53
2023-07-19T22:29:16.089Z,61.75
2023-07-19T22:31:43.560Z,62.83
2023-07-19T22:34:11.017Z,63.04
2023-07-19T22:36:38.337Z,62.60
2023-07-19T22:39:05.663Z,62.21
2023-07-19T22:41:33.004Z,61.67
2023-07-19T22:44:00.261Z,62.71
2023-07-19T22:46:27.658Z,62.41
2023-07-19T22:48:58.085Z,63.37
2023-07-19T22:51:25.575Z,63.75
2023-07-19T22:53:52.894Z,63.29
2023-07-19T22:58:47.512Z,64.97
2023-07-19T23:01:14.777Z,64.22
2023-07-19T23:03:42.153Z,65.37
2023-07-19T23:06:09.563Z,65.19
2023-07-19T23:08:36.911Z,64.67
2023-07-19T23:11:04.214Z,64.55
2023-07-19T23:13:31.735Z,65.65
2023-07-19T23:15:59.175Z,66.66
2023-07-19T23:21:11.206Z,66.20
2023-07-19T23:23:38.480Z,66.99
2023-07-19T23:26:05.848Z,67.13
2023-07-19T23:28:36.939Z,67.38
2023-07-19T23:31:07.159Z,68.23
2023-07-19T23:33:34.529Z,68.32
2023-07-19T23:36:01.840Z,67.05
2023-07-19T23:38:29.142Z,68.09
2023-07-19T23:40:56.661Z,68.02
2023-07-19T23:43:24.004Z,68.71
2023-07-19T23:45:51.273Z,68.28
2023-07-19T23:48:19.097Z,68.31
2023-07-19T23:50:46.392Z,69.24
2023-07-19T23:53:13.657Z,69.60
2023-07-19T23:55:41.283Z,69.46
2023-07-19T23:58:08.601Z,69.65
